Time;durP1;ratioP1;P1;durP2;ratioP2;P2;SDS_P1;SDS_P2;PMS_P1;PMS_P2;Temp;Humidity;BMP_temperature;BMP_pressure;BME280_temperature;BME280_humidity;BME280_pressure;Samples;Min_cycle;Max_cycle;Signal;HPM_P1;HPM_P2
2022/09/01 00:01:28;;;;;;;;;;;;;;;;;;4974459;28;7014;-84
2022/09/01 00:03:55;;;;;;;;;;;;;;;;;;4975443;28;7167;-83
2022/09/01 00:06:22;;;;;;;;;;;;;;;;;;4974933;28;7071;-82
2022/09/01 00:08:49;;;;;;;;;;;;;;;;;;4975252;28;7031;-83
2022/09/01 00:11:14;;;;;;;;;;;;;;;;;;4974400;28;7138;-83
2022/09/01 00:13:40;;;;;;;;;;;;;;;;;;4974812;28;8397;-84
2022/09/01 00:16:06;;;;;;;;;;;;;;;;;;4974852;28;8394;-84
2022/09/01 00:18:32;;;;;;;;;;;;;;;;;;4974753;28;8729;-83
2022/09/01 00:20:58;;;;;;;;;;;;;;;;;;4974503;28;7154;-83
2022/09/01 00:23:25;;;;;;;;;;;;;;;;;;4975028;28;8425;-85
2022/09/01 00:25:50;;;;;;;;;;;;;;;;;;4975493;28;8774;-84
2022/09/01 00:28:16;;;;;;;;;;;;;;;;;;4978855;28;8442;-84
2022/09/01 00:30:41;;;;;;;;;;;;;;;;;;4978732;28;8422;-83
2022/09/01 00:33:07;;;;;;;;;;;;;;;;;;4979247;28;7003;-82
2022/09/01 00:35:32;;;;;;;;;;;;;;;;;;4978755;28;7053;-82
2022/09/01 00:37:58;;;;;;;;;;;;;;;;;;4978937;28;7020;-84
2022/09/01 00:40:23;;;;;;;;;;;;;;;;;;4977880;28;7298;-83
2022/09/01 00:42:49;;;;;;;;;;;;;;;;;;4978559;28;7140;-83
2022/09/01 00:45:14;;;;;;;;;;;;;;;;;;4978522;28;7009;-84
2022/09/01 00:47:41;;;;;;;;;;;;;;;;;;4978156;28;6818;-83
2022/09/01 00:50:07;;;;;;;;;;;;;;;;;;4978526;28;8315;-83
2022/09/01 00:52:37;;;;;;;;;;;;;;;;;;4978516;28;7061;-83
2022/09/01 00:55:15;;;;;;;;;;;;;;;;;;4978303;28;7446;-83
2022/09/01 00:57:42;;;;;;;;;;;;;;;;;;4978739;28;7050;-83
2022/09/01 01:00:12;;;;;;;;;;;;;;;;;;4977890;28;6960;-83
2022/09/01 01:02:39;;;;;;;;;;;;;;;;;;4978018;28;8286;-83
2022/09/01 01:05:05;;;;;;;;;;;;;;;;;;4978811;28;8517;-85
2022/09/01 01:07:35;;;;;;;;;;;;;;;;;;4978247;28;7143;-83
2022/09/01 01:10:01;;;;;;;;;;;;;;;;;;4977846;28;7370;-84
2022/09/01 01:12:29;;;;;;;;;;;;;;;;;;4977754;28;8411;-82
2022/09/01 01:14:55;;;;;;;;;;;;;;;;;;4977438;28;7045;-83
2022/09/01 01:17:22;;;;;;;;;;;;;;;;;;4977410;28;7156;-84
2022/09/01 01:23:01;;;;;;;;;;;;;;;;;;4978845;28;6799;-84
2022/09/01 01:25:56;;;;;;;;;;;;;;;;;;4978248;28;7505;-83
2022/09/01 01:28:30;;;;;;;;;;;;;;;;;;4969313;28;7248;-83
2022/09/01 01:30:58;;;;;;;;;;;;;;;;;;4977397;28;7206;-83
2022/09/01 01:33:25;;;;;;;;;;;;;;;;;;4993746;28;7446;-83
2022/09/01 01:35:54;;;;;;;;;;;;;;;;;;4977407;28;7136;-84
2022/09/01 01:38:21;;;;;;;;;;;;;;;;;;4977060;28;7215;-84
2022/09/01 01:40:48;;;;;;;;;;;;;;;;;;4977295;28;8314;-83
2022/09/01 01:43:18;;;;;;;;;;;;;;;;;;4977254;28;8326;-83
2022/09/01 01:45:51;;;;;;;;;;;;;;;;;;4977431;28;8508;-84
2022/09/01 01:48:21;;;;;;;;;;;;;;;;;;4977165;28;8405;-83
2022/09/01 01:50:48;;;;;;;;;;;;;;;;;;4976724;28;7046;-84
2022/09/01 01:53:18;;;;;;;;;;;;;;;;;;4977203;28;7260;-84
2022/09/01 01:55:45;;;;;;;;;;;;;;;;;;4977350;28;8425;-84
2022/09/01 01:58:10;;;;;;;;;;;;;;;;;;4977439;28;8523;-84
2022/09/01 02:00:36;;;;;;;;;;;;;;;;;;4976947;28;8707;-81
2022/09/01 02:03:04;;;;;;;;;;;;;;;;;;4977247;28;7138;-84
2022/09/01 02:05:31;;;;;;;;;;;;;;;;;;4977076;28;7188;-83
2022/09/01 02:08:03;;;;;;;;;;;;;;;;;;4977066;28;8472;-84
2022/09/01 02:10:34;;;;;;;;;;;;;;;;;;4976924;28;7187;-84
2022/09/01 02:13:06;;;;;;;;;;;;;;;;;;4976441;28;8495;-83
2022/09/01 02:15:39;;;;;;;;;;;;;;;;;;4977352;28;7180;-83
2022/09/01 02:18:05;;;;;;;;;;;;;;;;;;4977105;28;7361;-84
2022/09/01 02:20:31;;;;;;;;;;;;;;;;;;4976305;28;6977;-83
2022/09/01 02:23:09;;;;;;;;;;;;;;;;;;4976404;28;6829;-84
2022/09/01 02:25:41;;;;;;;;;;;;;;;;;;4976411;28;7179;-84
2022/09/01 02:28:14;;;;;;;;;;;;;;;;;;4976090;28;7346;-84
2022/09/01 02:30:44;;;;;;;;;;;;;;;;;;4975987;28;8715;-83
2022/09/01 02:33:17;;;;;;;;;;;;;;;;;;4976300;28;7143;-84
2022/09/01 02:35:44;;;;;;;;;;;;;;;;;;4976056;28;8616;-83
2022/09/01 02:38:12;;;;;;;;;;;;;;;;;;4975793;28;8274;-83
2022/09/01 02:40:43;;;;;;;;;;;;;;;;;;4976113;28;7149;-83
2022/09/01 02:43:10;;;;;;;;;;;;;;;;;;4976626;28;7183;-83
2022/09/01 02:45:36;;;;;;;;;;;;;;;;;;4976068;28;7536;-84
2022/09/01 02:48:07;;;;;;;;;;;;;;;;;;4976114;28;7101;-83
2022/09/01 02:50:33;;;;;;;;;;;;;;;;;;4974965;28;8430;-82
2022/09/01 02:53:00;;;;;;;;;;;;;;;;;;4976320;28;7109;-80
2022/09/01 02:55:27;;;;;;;;;;;;;;;;;;4975503;28;7164;-84
2022/09/01 02:57:55;;;;;;;;;;;;;;;;;;4976548;28;8409;-84
2022/09/01 03:00:32;;;;;;;;;;;;;;;;;;4975309;28;7023;-83
2022/09/01 03:03:00;;;;;;;;;;;;;;;;;;4976165;28;7175;-84
2022/09/01 03:05:28;;;;;;;;;;;;;;;;;;4976080;28;7057;-84
2022/09/01 03:08:02;;;;;;;;;;;;;;;;;;4975428;28;7407;-82
2022/09/01 03:10:31;;;;;;;;;;;;;;;;;;4976259;28;7130;-83
2022/09/01 03:12:59;;;;;;;;;;;;;;;;;;4975554;28;7162;-83
2022/09/01 03:15:26;;;;;;;;;;;;;;;;;;4975896;28;8306;-83
2022/09/01 03:17:52;;;;;;;;;;;;;;;;;;4975468;28;6966;-83
2022/09/01 03:20:18;;;;;;;;;;;;;;;;;;4975332;28;7148;-83
2022/09/01 03:22:46;;;;;;;;;;;;;;;;;;4975311;28;8576;-82
2022/09/01 03:25:12;;;;;;;;;;;;;;;;;;4975345;28;7038;-83
2022/09/01 03:27:37;;;;;;;;;;;;;;;;;;4975452;28;8693;-82
2022/09/01 03:30:03;;;;;;;;;;;;;;;;;;4975507;28;9038;-83
2022/09/01 03:32:29;;;;;;;;;;;;;;;;;;4975239;28;8417;-84
2022/09/01 03:34:56;;;;;;;;;;;;;;;;;;4975227;28;7136;-84
2022/09/01 03:37:22;;;;;;;;;;;;;;;;;;4975566;28;7223;-83
2022/09/01 03:39:47;;;;;;;;;;;;;;;;;;4975475;28;7246;-84
2022/09/01 03:42:21;;;;;;;;;;;;;;;;;;4975106;28;8548;-84
2022/09/01 03:44:48;;;;;;;;;;;;;;;;;;4975670;28;8602;-83
2022/09/01 03:47:14;;;;;;;;;;;;;;;;;;4975420;28;7180;-84
2022/09/01 03:49:42;;;;;;;;;;;;;;;;;;4974894;28;7125;-83
2022/09/01 03:52:10;;;;;;;;;;;;;;;;;;4975147;28;7426;-83
2022/09/01 03:54:36;;;;;;;;;;;;;;;;;;4974898;28;7407;-83
2022/09/01 03:57:04;;;;;;;;;;;;;;;;;;4974972;28;8401;-84
2022/09/01 03:59:30;;;;;;;;;;;;;;;;;;4974765;28;8423;-83
2022/09/01 04:01:57;;;;;;;;;;;;;;;;;;4974502;28;7227;-84
2022/09/01 04:04:23;;;;;;;;;;;;;;;;;;4974778;28;8872;-82
2022/09/01 04:06:49;;;;;;;;;;;;;;;;;;4974951;28;7431;-84
2022/09/01 04:09:14;;;;;;;;;;;;;;;;;;4974789;28;8318;-83
2022/09/01 04:11:40;;;;;;;;;;;;;;;;;;4974453;28;6982;-82
2022/09/01 04:14:09;;;;;;;;;;;;;;;;;;4974681;28;7265;-83
2022/09/01 04:19:24;;;;;;;;;;;;;;;;;;4981305;28;7482;-82
2022/09/01 04:21:52;;;;;;;;;;;;;;;;;;5002551;28;7051;-81
2022/09/01 04:24:18;;;;;;;;;;;;;;;;;;4985560;28;8331;-82
2022/09/01 04:26:47;;;;;;;;;;;;;;;;;;5004714;28;7179;-83
2022/09/01 04:29:13;;;;;;;;;;;;;;;;;;4985100;28;7145;-84
2022/09/01 04:31:39;;;;;;;;;;;;;;;;;;4985101;28;8336;-81
2022/09/01 04:34:12;;;;;;;;;;;;;;;;;;4987259;28;7045;-83
2022/09/01 04:36:40;;;;;;;;;;;;;;;;;;4984667;28;7367;-82
2022/09/01 04:39:08;;;;;;;;;;;;;;;;;;5004483;28;7046;-84
2022/09/01 04:41:36;;;;;;;;;;;;;;;;;;4986062;28;7274;-84
2022/09/01 04:44:03;;;;;;;;;;;;;;;;;;4987294;28;7273;-82
2022/09/01 04:46:31;;;;;;;;;;;;;;;;;;4987366;28;7445;-82
2022/09/01 04:48:58;;;;;;;;;;;;;;;;;;4984725;28;8444;-82
2022/09/01 04:51:26;;;;;;;;;;;;;;;;;;4987114;28;7504;-83
2022/09/01 04:53:56;;;;;;;;;;;;;;;;;;4986190;28;8403;-82
2022/09/01 04:56:23;;;;;;;;;;;;;;;;;;4987489;28;7544;-83
2022/09/01 04:58:49;;;;;;;;;;;;;;;;;;4985729;28;7132;-82
2022/09/01 05:01:17;;;;;;;;;;;;;;;;;;4985750;28;8286;-83
2022/09/01 05:03:44;;;;;;;;;;;;;;;;;;4987034;28;8418;-84
2022/09/01 05:06:18;;;;;;;;;;;;;;;;;;4994622;28;7615;-84
2022/09/01 05:08:45;;;;;;;;;;;;;;;;;;4997266;28;7060;-83
2022/09/01 05:11:11;;;;;;;;;;;;;;;;;;4997102;28;7029;-83
2022/09/01 05:13:42;;;;;;;;;;;;;;;;;;4998655;28;6952;-84
2022/09/01 05:16:13;;;;;;;;;;;;;;;;;;5000721;28;7178;-84
2022/09/01 05:18:41;;;;;;;;;;;;;;;;;;5000218;28;7047;-83
2022/09/01 05:21:10;;;;;;;;;;;;;;;;;;5000481;28;8457;-85
2022/09/01 05:23:37;;;;;;;;;;;;;;;;;;5000160;28;6937;-84
2022/09/01 05:26:13;;;;;;;;;;;;;;;;;;5000963;28;7133;-85
2022/09/01 05:28:40;;;;;;;;;;;;;;;;;;5000403;28;7052;-86
2022/09/01 05:31:06;;;;;;;;;;;;;;;;;;4994213;28;7150;-83
2022/09/01 05:33:35;;;;;;;;;;;;;;;;;;4989051;28;7154;-83
2022/09/01 05:36:06;;;;;;;;;;;;;;;;;;4991637;28;7294;-83
2022/09/01 05:38:32;;;;;;;;;;;;;;;;;;4997268;28;7409;-82
2022/09/01 05:41:03;;;;;;;;;;;;;;;;;;4999988;28;7237;-84
2022/09/01 05:43:31;;;;;;;;;;;;;;;;;;4999703;28;7072;-86
2022/09/01 05:45:57;;;;;;;;;;;;;;;;;;5000161;28;7232;-85
2022/09/01 05:48:24;;;;;;;;;;;;;;;;;;4999863;28;7188;-86
2022/09/01 05:50:55;;;;;;;;;;;;;;;;;;4999905;28;8880;-84
2022/09/01 05:53:24;;;;;;;;;;;;;;;;;;5000088;28;8597;-82
2022/09/01 05:55:55;;;;;;;;;;;;;;;;;;4999774;28;8578;-84
2022/09/01 05:58:23;;;;;;;;;;;;;;;;;;4999369;28;7206;-83
2022/09/01 06:00:50;;;;;;;;;;;;;;;;;;4999459;28;7170;-83
2022/09/01 06:03:16;;;;;;;;;;;;;;;;;;4999826;28;7174;-83
2022/09/01 06:05:44;;;;;;;;;;;;;;;;;;4999651;28;7032;-83
2022/09/01 06:08:12;;;;;;;;;;;;;;;;;;4999437;28;7170;-83
2022/09/01 06:10:38;;;;;;;;;;;;;;;;;;4999957;28;7044;-84
2022/09/01 06:13:06;;;;;;;;;;;;;;;;;;5001900;28;8905;-83
2022/09/01 06:15:31;;;;;;;;;;;;;;;;;;4999659;28;8413;-81
2022/09/01 06:17:57;;;;;;;;;;;;;;;;;;4999477;28;8422;-83
2022/09/01 06:20:23;;;;;;;;;;;;;;;;;;4998852;28;7958;-84
2022/09/01 06:22:51;;;;;;;;;;;;;;;;;;4999357;28;7365;-84
2022/09/01 06:25:17;;;;;;;;;;;;;;;;;;4999099;28;8401;-84
2022/09/01 06:27:43;;;;;;;;;;;;;;;;;;4999645;28;7427;-84
2022/09/01 06:30:13;;;;;;;;;;;;;;;;;;4999007;28;7184;-84
2022/09/01 06:32:43;;;;;;;;;;;;;;;;;;4999413;28;7061;-84
2022/09/01 06:35:10;;;;;;;;;;;;;;;;;;4998879;28;7134;-85
2022/09/01 06:37:42;;;;;;;;;;;;;;;;;;4998590;28;7003;-84
2022/09/01 06:40:09;;;;;;;;;;;;;;;;;;4998970;28;7184;-83
2022/09/01 06:42:36;;;;;;;;;;;;;;;;;;4998542;28;8765;-84
2022/09/01 06:45:02;;;;;;;;;;;;;;;;;;4998730;28;7036;-82
2022/09/01 06:47:28;;;;;;;;;;;;;;;;;;4998820;28;8389;-83
2022/09/01 06:49:57;;;;;;;;;;;;;;;;;;4998339;28;7028;-84
2022/09/01 06:52:24;;;;;;;;;;;;;;;;;;4998667;28;8381;-84
2022/09/01 06:54:52;;;;;;;;;;;;;;;;;;4998870;28;7127;-84
2022/09/01 06:57:17;;;;;;;;;;;;;;;;;;4998465;28;7051;-84
2022/09/01 06:59:43;;;;;;;;;;;;;;;;;;4998847;28;8652;-84
2022/09/01 07:02:15;;;;;;;;;;;;;;;;;;4998262;28;8478;-84
2022/09/01 07:04:44;;;;;;;;;;;;;;;;;;4998289;28;8853;-86
2022/09/01 07:07:11;;;;;;;;;;;;;;;;;;4998815;28;8484;-87
2022/09/01 07:09:38;;;;;;;;;;;;;;;;;;4997874;28;7048;-84
2022/09/01 07:12:05;;;;;;;;;;;;;;;;;;4997888;28;9118;-85
2022/09/01 07:14:30;;;;;;;;;;;;;;;;;;4998180;28;8821;-86
2022/09/01 07:16:57;;;;;;;;;;;;;;;;;;4997926;28;8486;-86
2022/09/01 07:19:24;;;;;;;;;;;;;;;;;;4994484;28;8811;-85
2022/09/01 07:21:51;;;;;;;;;;;;;;;;;;4994815;28;8911;-85
2022/09/01 07:24:19;;;;;;;;;;;;;;;;;;4994468;28;7221;-84
2022/09/01 07:26:49;;;;;;;;;;;;;;;;;;4994639;28;8961;-86
2022/09/01 07:29:16;;;;;;;;;;;;;;;;;;4994488;28;7168;-86
2022/09/01 07:31:42;;;;;;;;;;;;;;;;;;4995163;28;8305;-86
2022/09/01 07:34:11;;;;;;;;;;;;;;;;;;4995371;28;6831;-85
2022/09/01 07:36:38;;;;;;;;;;;;;;;;;;4993997;28;8401;-86
2022/09/01 07:39:04;;;;;;;;;;;;;;;;;;4994894;28;9674;-85
2022/09/01 07:41:31;;;;;;;;;;;;;;;;;;4994385;28;7229;-86
2022/09/01 07:43:57;;;;;;;;;;;;;;;;;;4994903;28;8347;-86
2022/09/01 07:46:24;;;;;;;;;;;;;;;;;;4994860;28;8661;-87
2022/09/01 07:48:53;;;;;;;;;;;;;;;;;;4994117;28;8270;-88
2022/09/01 07:51:20;;;;;;;;;;;;;;;;;;4994739;28;7185;-83
2022/09/01 07:53:47;;;;;;;;;;;;;;;;;;4994302;28;8404;-84
2022/09/01 07:56:14;;;;;;;;;;;;;;;;;;4994129;28;7185;-85
2022/09/01 07:58:43;;;;;;;;;;;;;;;;;;4994170;28;7030;-84
2022/09/01 08:01:20;;;;;;;;;;;;;;;;;;4994130;28;7250;-84
2022/09/01 08:03:48;;;;;;;;;;;;;;;;;;4994067;28;7444;-83
2022/09/01 08:06:19;;;;;;;;;;;;;;;;;;4994062;28;7173;-85
2022/09/01 08:08:47;;;;;;;;;;;;;;;;;;4993956;28;7161;-82
2022/09/01 08:11:17;;;;;;;;;;;;;;;;;;4994456;28;7248;-85
2022/09/01 08:13:43;;;;;;;;;;;;;;;;;;4994175;28;8795;-85
2022/09/01 08:16:10;;;;;;;;;;;;;;;;;;4994729;28;7356;-86
2022/09/01 08:18:36;;;;;;;;;;;;;;;;;;4994043;28;8348;-85
2022/09/01 08:21:06;;;;;;;;;;;;;;;;;;4994610;28;8704;-83
2022/09/01 08:23:31;;;;;;;;;;;;;;;;;;4994363;28;8442;-86
2022/09/01 08:25:57;;;;;;;;;;;;;;;;;;4993740;28;8607;-85
2022/09/01 08:28:22;;;;;;;;;;;;;;;;;;4994306;28;8618;-83
2022/09/01 08:30:47;;;;;;;;;;;;;;;;;;4992438;28;7167;-81
2022/09/01 08:33:14;;;;;;;;;;;;;;;;;;4990674;28;8423;-84
2022/09/01 08:35:41;;;;;;;;;;;;;;;;;;4992912;28;7183;-84
2022/09/01 08:38:07;;;;;;;;;;;;;;;;;;4993971;28;7188;-84
2022/09/01 08:40:33;;;;;;;;;;;;;;;;;;4993254;28;8416;-84
2022/09/01 08:43:19;;;;;;;;;;;;;;;;;;4993351;28;8388;-85
2022/09/01 08:45:52;;;;;;;;;;;;;;;;;;4993461;28;8437;-86
2022/09/01 08:48:21;;;;;;;;;;;;;;;;;;4994809;28;7202;-84
2022/09/01 08:50:54;;;;;;;;;;;;;;;;;;4997148;28;8432;-84
2022/09/01 08:53:20;;;;;;;;;;;;;;;;;;4997101;28;8530;-84
2022/09/01 08:55:50;;;;;;;;;;;;;;;;;;5013224;28;7126;-84
2022/09/01 08:58:17;;;;;;;;;;;;;;;;;;4997261;28;8397;-84
2022/09/01 09:00:45;;;;;;;;;;;;;;;;;;4997296;28;6815;-83
2022/09/01 09:03:31;;;;;;;;;;;;;;;;;;4996410;28;7132;-85
2022/09/01 09:06:03;;;;;;;;;;;;;;;;;;4996838;28;7178;-86
2022/09/01 09:08:28;;;;;;;;;;;;;;;;;;5012936;28;7473;-85
2022/09/01 09:10:59;;;;;;;;;;;;;;;;;;5013411;28;8433;-85
2022/09/01 09:13:57;;;;;;;;;;;;;;;;;;4996708;28;7186;-85
2022/09/01 09:16:27;;;;;;;;;;;;;;;;;;4996469;28;7405;-84
2022/09/01 09:18:53;;;;;;;;;;;;;;;;;;4998644;28;7157;-84
2022/09/01 09:21:32;;;;;;;;;;;;;;;;;;5016193;28;8466;-86
2022/09/01 09:24:05;;;;;;;;;;;;;;;;;;5000111;28;7450;-83
2022/09/01 09:26:30;;;;;;;;;;;;;;;;;;4999628;28;9587;-84
2022/09/01 09:28:56;;;;;;;;;;;;;;;;;;4999598;28;8307;-86
2022/09/01 09:31:27;;;;;;;;;;;;;;;;;;4999435;28;9429;-85
2022/09/01 09:33:53;;;;;;;;;;;;;;;;;;5016042;28;7068;-85
2022/09/01 09:36:21;;;;;;;;;;;;;;;;;;4999889;28;7136;-85
2022/09/01 09:39:02;;;;;;;;;;;;;;;;;;4999640;28;8415;-85
2022/09/01 09:41:27;;;;;;;;;;;;;;;;;;4999657;28;7036;-85
2022/09/01 09:44:11;;;;;;;;;;;;;;;;;;4999327;28;8806;-84
2022/09/01 09:46:39;;;;;;;;;;;;;;;;;;4998963;28;8442;-84
2022/09/01 09:49:07;;;;;;;;;;;;;;;;;;5015414;28;7246;-83
2022/09/01 09:51:32;;;;;;;;;;;;;;;;;;5000097;28;8505;-85
2022/09/01 09:54:14;;;;;;;;;;;;;;;;;;5015171;28;8390;-85
2022/09/01 09:56:43;;;;;;;;;;;;;;;;;;4998945;28;8346;-84
2022/09/01 09:59:22;;;;;;;;;;;;;;;;;;5015545;28;7003;-85
2022/09/01 10:01:50;;;;;;;;;;;;;;;;;;5014987;28;7182;-84
2022/09/01 10:04:36;;;;;;;;;;;;;;;;;;4998782;28;7276;-84
2022/09/01 10:07:22;;;;;;;;;;;;;;;;;;4998983;28;8445;-85
2022/09/01 10:09:48;;;;;;;;;;;;;;;;;;4998837;28;8517;-84
2022/09/01 10:12:15;;;;;;;;;;;;;;;;;;4998929;28;8446;-86
2022/09/01 10:14:46;;;;;;;;;;;;;;;;;;4998647;28;7048;-84
2022/09/01 10:17:18;;;;;;;;;;;;;;;;;;4998349;28;7174;-85
2022/09/01 10:19:50;;;;;;;;;;;;;;;;;;4995385;28;8444;-85
2022/09/01 10:22:16;;;;;;;;;;;;;;;;;;4995265;28;7162;-82
2022/09/01 10:24:42;;;;;;;;;;;;;;;;;;4995410;28;8374;-83
2022/09/01 10:27:26;;;;;;;;;;;;;;;;;;4995594;28;8440;-84
2022/09/01 10:29:56;;;;;;;;;;;;;;;;;;4995359;28;8452;-84
2022/09/01 10:32:29;;;;;;;;;;;;;;;;;;4995104;28;8760;-83
2022/09/01 10:34:56;;;;;;;;;;;;;;;;;;4995207;28;8401;-85
2022/09/01 10:37:23;;;;;;;;;;;;;;;;;;4995022;28;7281;-83
2022/09/01 10:40:07;;;;;;;;;;;;;;;;;;4995760;28;8997;-82
2022/09/01 10:42:33;;;;;;;;;;;;;;;;;;5010810;28;7085;-83
2022/09/01 10:45:02;;;;;;;;;;;;;;;;;;4994951;28;8829;-82
2022/09/01 10:47:32;;;;;;;;;;;;;;;;;;4995103;28;7287;-85
2022/09/01 10:50:24;;;;;;;;;;;;;;;;;;4994875;28;7252;-85
2022/09/01 10:53:01;;;;;;;;;;;;;;;;;;4991773;28;8492;-84
2022/09/01 10:55:29;;;;;;;;;;;;;;;;;;4995050;28;7434;-85
2022/09/01 10:58:01;;;;;;;;;;;;;;;;;;5011257;28;7074;-85
2022/09/01 11:00:26;;;;;;;;;;;;;;;;;;4994514;28;7179;-84
2022/09/01 11:03:10;;;;;;;;;;;;;;;;;;5010734;28;7167;-84
2022/09/01 11:05:54;;;;;;;;;;;;;;;;;;5010916;28;8439;-85
2022/09/01 11:08:40;;;;;;;;;;;;;;;;;;5011162;28;7089;-85
2022/09/01 11:11:06;;;;;;;;;;;;;;;;;;4994176;28;7077;-84
2022/09/01 11:13:36;;;;;;;;;;;;;;;;;;5010333;28;7011;-85
2022/09/01 11:16:20;;;;;;;;;;;;;;;;;;4993271;28;8392;-85
2022/09/01 11:18:46;;;;;;;;;;;;;;;;;;5010313;28;8394;-83
2022/09/01 11:21:31;;;;;;;;;;;;;;;;;;4997619;28;7030;-85
2022/09/01 11:24:16;;;;;;;;;;;;;;;;;;4997359;28;7069;-85
2022/09/01 11:26:46;;;;;;;;;;;;;;;;;;5014035;28;8496;-85
2022/09/01 11:29:30;;;;;;;;;;;;;;;;;;4997352;28;8483;-85
2022/09/01 11:31:57;;;;;;;;;;;;;;;;;;5013789;28;8522;-82
2022/09/01 11:34:26;;;;;;;;;;;;;;;;;;4997559;28;7429;-86
2022/09/01 11:36:51;;;;;;;;;;;;;;;;;;4997533;28;7220;-84
2022/09/01 11:39:17;;;;;;;;;;;;;;;;;;5013816;28;8457;-85
2022/09/01 11:41:51;;;;;;;;;;;;;;;;;;5013767;28;9736;-87
2022/09/01 11:44:20;;;;;;;;;;;;;;;;;;4997090;28;7070;-86
2022/09/01 11:46:45;;;;;;;;;;;;;;;;;;5013531;28;8447;-86
2022/09/01 11:49:27;;;;;;;;;;;;;;;;;;4997136;28;8803;-86
2022/09/01 11:51:54;;;;;;;;;;;;;;;;;;4997111;28;7380;-84
2022/09/01 11:54:19;;;;;;;;;;;;;;;;;;4997493;28;8554;-85
2022/09/01 11:56:45;;;;;;;;;;;;;;;;;;4996981;28;7178;-85
2022/09/01 11:59:11;;;;;;;;;;;;;;;;;;4997054;28;9159;-84
2022/09/01 12:01:39;;;;;;;;;;;;;;;;;;4997049;28;8411;-84
2022/09/01 12:04:26;;;;;;;;;;;;;;;;;;4997047;28;7190;-85
2022/09/01 12:06:57;;;;;;;;;;;;;;;;;;4997176;28;7511;-84
2022/09/01 12:09:31;;;;;;;;;;;;;;;;;;4997225;28;8419;-85
2022/09/01 12:11:56;;;;;;;;;;;;;;;;;;4996987;28;8759;-85
2022/09/01 12:14:22;;;;;;;;;;;;;;;;;;4997016;28;8622;-84
2022/09/01 12:16:56;;;;;;;;;;;;;;;;;;4996866;28;8437;-85
2022/09/01 12:19:27;;;;;;;;;;;;;;;;;;4996789;28;8462;-84
2022/09/01 12:21:59;;;;;;;;;;;;;;;;;;4997393;28;8741;-82
2022/09/01 12:24:24;;;;;;;;;;;;;;;;;;5001285;28;7754;-84
2022/09/01 12:27:00;;;;;;;;;;;;;;;;;;5000832;28;9501;-85
2022/09/01 12:29:26;;;;;;;;;;;;;;;;;;5000499;28;8859;-86
2022/09/01 12:31:54;;;;;;;;;;;;;;;;;;5000938;28;8457;-82
2022/09/01 12:34:32;;;;;;;;;;;;;;;;;;5001154;28;8463;-84
2022/09/01 12:37:03;;;;;;;;;;;;;;;;;;5016765;28;8723;-82
2022/09/01 12:39:41;;;;;;;;;;;;;;;;;;5000934;28;7053;-83
2022/09/01 12:42:09;;;;;;;;;;;;;;;;;;5000485;28;8658;-83
2022/09/01 12:44:37;;;;;;;;;;;;;;;;;;5000561;28;8935;-84
2022/09/01 12:47:06;;;;;;;;;;;;;;;;;;5016702;28;7164;-84
2022/09/01 12:49:34;;;;;;;;;;;;;;;;;;5000682;28;7067;-85
2022/09/01 12:52:06;;;;;;;;;;;;;;;;;;5016461;28;7020;-83
2022/09/01 12:54:32;;;;;;;;;;;;;;;;;;5017098;28;7196;-84
2022/09/01 12:56:57;;;;;;;;;;;;;;;;;;5000246;28;8399;-85
2022/09/01 12:59:25;;;;;;;;;;;;;;;;;;5000139;28;8409;-84
2022/09/01 13:01:51;;;;;;;;;;;;;;;;;;5000098;28;7066;-85
2022/09/01 13:04:19;;;;;;;;;;;;;;;;;;5000330;28;8629;-83
2022/09/01 13:06:44;;;;;;;;;;;;;;;;;;5016517;28;8732;-84
2022/09/01 13:09:10;;;;;;;;;;;;;;;;;;5002216;28;8494;-83
2022/09/01 13:11:36;;;;;;;;;;;;;;;;;;5000058;28;8692;-85
2022/09/01 13:14:02;;;;;;;;;;;;;;;;;;5000683;28;8640;-85
2022/09/01 13:16:27;;;;;;;;;;;;;;;;;;5000080;28;8429;-84
2022/09/01 13:18:53;;;;;;;;;;;;;;;;;;5000217;28;6992;-83
2022/09/01 13:21:19;;;;;;;;;;;;;;;;;;4999428;28;8430;-84
2022/09/01 13:23:45;;;;;;;;;;;;;;;;;;4999543;28;7186;-84
2022/09/01 13:26:11;;;;;;;;;;;;;;;;;;5016013;28;7193;-84
2022/09/01 13:28:36;;;;;;;;;;;;;;;;;;5015630;28;8423;-83
2022/09/01 13:31:04;;;;;;;;;;;;;;;;;;4999439;28;8306;-84
2022/09/01 13:33:32;;;;;;;;;;;;;;;;;;4998778;28;7651;-84
2022/09/01 13:35:57;;;;;;;;;;;;;;;;;;5015835;28;8563;-84
2022/09/01 13:38:23;;;;;;;;;;;;;;;;;;5015917;28;8486;-84
2022/09/01 13:40:50;;;;;;;;;;;;;;;;;;4999463;28;8379;-85
2022/09/01 13:43:18;;;;;;;;;;;;;;;;;;5015567;28;8537;-84
2022/09/01 13:45:43;;;;;;;;;;;;;;;;;;4999207;28;7362;-86
2022/09/01 13:48:09;;;;;;;;;;;;;;;;;;4999482;28;8397;-85
2022/09/01 13:50:37;;;;;;;;;;;;;;;;;;4998228;28;8524;-86
2022/09/01 13:53:03;;;;;;;;;;;;;;;;;;4998553;28;8646;-85
2022/09/01 13:55:31;;;;;;;;;;;;;;;;;;4998707;28;8293;-84
2022/09/01 13:57:57;;;;;;;;;;;;;;;;;;4998078;28;8444;-86
2022/09/01 14:00:24;;;;;;;;;;;;;;;;;;4999571;28;8545;-85
2022/09/01 14:02:52;;;;;;;;;;;;;;;;;;4998989;28;8704;-84
2022/09/01 14:05:20;;;;;;;;;;;;;;;;;;4999323;28;8584;-84
2022/09/01 14:07:47;;;;;;;;;;;;;;;;;;4998978;28;8537;-85
2022/09/01 14:10:13;;;;;;;;;;;;;;;;;;4998984;28;7205;-84
2022/09/01 14:12:40;;;;;;;;;;;;;;;;;;4997959;28;8521;-85
2022/09/01 14:15:06;;;;;;;;;;;;;;;;;;4999426;28;7159;-84
2022/09/01 14:17:34;;;;;;;;;;;;;;;;;;4999193;28;7056;-86
2022/09/01 14:19:59;;;;;;;;;;;;;;;;;;5011577;28;8752;-85
2022/09/01 14:22:25;;;;;;;;;;;;;;;;;;4995333;28;7116;-86
2022/09/01 14:24:51;;;;;;;;;;;;;;;;;;4994964;28;7167;-85
2022/09/01 14:27:16;;;;;;;;;;;;;;;;;;4994446;28;7555;-85
2022/09/01 14:29:42;;;;;;;;;;;;;;;;;;4995160;28;8527;-84
2022/09/01 14:32:07;;;;;;;;;;;;;;;;;;4995058;28;8669;-84
2022/09/01 14:34:35;;;;;;;;;;;;;;;;;;4995266;28;7163;-87
2022/09/01 14:37:01;;;;;;;;;;;;;;;;;;4995141;28;7445;-86
2022/09/01 14:39:27;;;;;;;;;;;;;;;;;;4994880;28;8502;-85
2022/09/01 14:41:53;;;;;;;;;;;;;;;;;;4994756;28;7328;-83
2022/09/01 14:44:19;;;;;;;;;;;;;;;;;;4995109;28;8798;-82
2022/09/01 14:46:45;;;;;;;;;;;;;;;;;;4995607;28;8451;-83
2022/09/01 14:49:11;;;;;;;;;;;;;;;;;;4994824;28;8327;-85
2022/09/01 14:51:37;;;;;;;;;;;;;;;;;;4994837;28;7091;-86
2022/09/01 14:54:03;;;;;;;;;;;;;;;;;;4995005;28;9093;-85
2022/09/01 14:56:28;;;;;;;;;;;;;;;;;;4994248;28;8710;-84
2022/09/01 14:58:59;;;;;;;;;;;;;;;;;;4994669;28;8418;-83
2022/09/01 15:01:26;;;;;;;;;;;;;;;;;;4994058;28;7076;-84
2022/09/01 15:03:53;;;;;;;;;;;;;;;;;;4994447;28;8543;-84
2022/09/01 15:06:21;;;;;;;;;;;;;;;;;;4994821;28;7217;-84
2022/09/01 15:08:47;;;;;;;;;;;;;;;;;;4994484;28;7208;-85
2022/09/01 15:11:16;;;;;;;;;;;;;;;;;;4993720;28;8495;-84
2022/09/01 15:13:44;;;;;;;;;;;;;;;;;;4993843;28;7269;-84
2022/09/01 15:16:18;;;;;;;;;;;;;;;;;;4987184;28;7500;-83
2022/09/01 15:18:44;;;;;;;;;;;;;;;;;;4975273;28;7236;-84
2022/09/01 15:21:30;;;;;;;;;;;;;;;;;;4978194;28;8466;-85
2022/09/01 15:23:56;;;;;;;;;;;;;;;;;;4978401;28;7205;-84
2022/09/01 15:26:22;;;;;;;;;;;;;;;;;;4977342;28;8882;-84
2022/09/01 15:28:49;;;;;;;;;;;;;;;;;;4978014;28;8753;-85
2022/09/01 15:31:16;;;;;;;;;;;;;;;;;;4978293;28;9385;-85
2022/09/01 15:33:43;;;;;;;;;;;;;;;;;;4977998;28;7215;-85
2022/09/01 15:36:13;;;;;;;;;;;;;;;;;;4978241;28;8524;-84
2022/09/01 15:38:39;;;;;;;;;;;;;;;;;;4977943;28;8506;-84
2022/09/01 15:41:04;;;;;;;;;;;;;;;;;;4977513;28;8664;-83
2022/09/01 15:43:30;;;;;;;;;;;;;;;;;;4977727;28;7183;-85
2022/09/01 15:45:57;;;;;;;;;;;;;;;;;;4978625;28;7170;-84
2022/09/01 15:48:24;;;;;;;;;;;;;;;;;;4977760;28;8436;-84
2022/09/01 15:50:50;;;;;;;;;;;;;;;;;;4977794;28;8690;-82
2022/09/01 15:53:15;;;;;;;;;;;;;;;;;;4977620;28;7173;-85
2022/09/01 15:55:43;;;;;;;;;;;;;;;;;;4977258;28;8488;-85
2022/09/01 15:58:11;;;;;;;;;;;;;;;;;;4977448;28;8700;-84
2022/09/01 16:00:37;;;;;;;;;;;;;;;;;;4993911;28;8531;-85
2022/09/01 16:03:03;;;;;;;;;;;;;;;;;;4977219;28;8437;-84
2022/09/01 16:05:30;;;;;;;;;;;;;;;;;;4977732;28;8451;-84
2022/09/01 16:07:55;;;;;;;;;;;;;;;;;;4977984;28;7147;-84
2022/09/01 16:10:22;;;;;;;;;;;;;;;;;;4977240;28;8716;-84
2022/09/01 16:12:51;;;;;;;;;;;;;;;;;;4977328;28;7217;-83
2022/09/01 16:15:19;;;;;;;;;;;;;;;;;;4977354;28;7183;-85
2022/09/01 16:18:03;;;;;;;;;;;;;;;;;;4977790;28;7240;-84
2022/09/01 16:20:44;;;;;;;;;;;;;;;;;;4990366;28;8754;-82
2022/09/01 16:23:16;;;;;;;;;;;;;;;;;;4990359;28;8809;-82
2022/09/01 16:25:42;;;;;;;;;;;;;;;;;;4973786;28;7053;-84
2022/09/01 16:28:28;;;;;;;;;;;;;;;;;;4974358;28;8735;-82
2022/09/01 16:31:19;;;;;;;;;;;;;;;;;;4974110;28;7060;-84
2022/09/01 16:33:50;;;;;;;;;;;;;;;;;;4966834;28;8321;-83
2022/09/01 16:36:28;;;;;;;;;;;;;;;;;;4974537;28;8760;-84
2022/09/01 16:39:13;;;;;;;;;;;;;;;;;;4974190;28;8438;-86
2022/09/01 16:41:42;;;;;;;;;;;;;;;;;;4990189;28;8753;-86
2022/09/01 16:44:27;;;;;;;;;;;;;;;;;;4990829;28;8461;-87
2022/09/01 16:47:01;;;;;;;;;;;;;;;;;;4990692;28;8369;-85
2022/09/01 16:49:27;;;;;;;;;;;;;;;;;;4989652;28;8463;-85
2022/09/01 16:52:19;;;;;;;;;;;;;;;;;;4989907;28;8735;-85
2022/09/01 16:54:59;;;;;;;;;;;;;;;;;;4970852;28;8927;-86
2022/09/01 16:57:37;;;;;;;;;;;;;;;;;;4989971;28;8394;-83
2022/09/01 17:00:09;;;;;;;;;;;;;;;;;;4990222;28;8456;-83
2022/09/01 17:02:46;;;;;;;;;;;;;;;;;;4973721;28;7063;-83
2022/09/01 17:05:33;;;;;;;;;;;;;;;;;;4973873;28;8466;-83
2022/09/01 17:08:10;;;;;;;;;;;;;;;;;;4973840;28;7153;-82
2022/09/01 17:10:40;;;;;;;;;;;;;;;;;;4976423;28;8447;-82
2022/09/01 17:13:27;;;;;;;;;;;;;;;;;;4977049;28;7070;-83
2022/09/01 17:16:20;;;;;;;;;;;;;;;;;;4977448;28;8572;-84
2022/09/01 17:18:51;;;;;;;;;;;;;;;;;;4955434;28;7245;-86
2022/09/01 17:21:20;;;;;;;;;;;;;;;;;;4980506;28;8507;-84
2022/09/01 17:23:59;;;;;;;;;;;;;;;;;;4980256;28;8771;-84